Time;durP1;ratioP1;P1;durP2;ratioP2;P2;SDS_P1;SDS_P2;PMS_P1;PMS_P2;Temp;Humidity;BMP_temperature;BMP_pressure;BME280_temperature;BME280_humidity;BME280_pressure;Samples;Min_cycle;Max_cycle;Signal;HPM_P1;HPM_P2
2023/10/10 00:00:47;;;;;;;1999.90;999.90;;;15.80;99.90;;;;;;5111736;28;20416;-67
2023/10/10 00:03:14;;;;;;;1999.90;999.90;;;15.80;99.90;;;;;;5110338;28;20107;-67
2023/10/10 00:05:40;;;;;;;1999.90;999.90;;;15.80;99.90;;;;;;5116236;28;20057;-67
2023/10/10 00:08:09;;;;;;;1999.90;999.90;;;15.90;99.90;;;;;;5112478;28;20023;-67
2023/10/10 00:10:36;;;;;;;1999.90;999.90;;;15.90;99.90;;;;;;5109325;28;20051;-68
2023/10/10 00:13:07;;;;;;;1999.90;999.90;;;16.00;99.90;;;;;;5113278;28;20050;-67
2023/10/10 00:15:38;;;;;;;1999.90;999.90;;;16.00;99.90;;;;;;5115259;28;20024;-68
2023/10/10 00:18:11;;;;;;;1999.90;999.90;;;16.00;99.90;;;;;;5115519;28;20031;-68
2023/10/10 00:20:44;;;;;;;1999.90;999.90;;;16.00;99.90;;;;;;5113198;28;20432;-68
2023/10/10 00:23:11;;;;;;;1999.90;999.90;;;16.00;99.90;;;;;;5114855;28;20024;-75
2023/10/10 00:25:42;;;;;;;1999.90;999.90;;;16.00;99.90;;;;;;5115532;28;20020;-67
2023/10/10 00:28:20;;;;;;;1999.90;999.90;;;15.90;99.90;;;;;;5091170;28;20024;-67
2023/10/10 00:30:46;;;;;;;1999.90;999.90;;;15.90;99.90;;;;;;5106964;28;20416;-68
2023/10/10 00:33:16;;;;;;;1999.90;999.90;;;15.90;99.90;;;;;;5103645;28;20039;-67
2023/10/10 00:35:42;;;;;;;1999.90;999.90;;;15.80;99.90;;;;;;5114812;28;20039;-67
2023/10/10 00:38:17;;;;;;;1999.90;999.90;;;15.70;99.90;;;;;;5115468;28;20038;-75
2023/10/10 00:40:46;;;;;;;1999.90;999.90;;;15.60;99.90;;;;;;5100658;28;20318;-67
2023/10/10 00:43:15;;;;;;;1999.90;999.90;;;15.50;99.90;;;;;;5104935;28;20135;-67
2023/10/10 00:45:52;;;;;;;1999.90;999.90;;;15.50;99.90;;;;;;5113151;28;20429;-68
2023/10/10 00:48:24;;;;;;;;;;;15.60;99.90;;;;;;5111177;28;20032;-67
2023/10/10 00:50:53;;;;;;;1999.90;999.90;;;15.70;99.90;;;;;;5109977;28;19951;-67
2023/10/10 00:53:22;;;;;;;1999.90;999.90;;;15.70;99.90;;;;;;5115427;28;20023;-67
2023/10/10 00:55:57;;;;;;;1999.90;999.90;;;15.70;99.90;;;;;;5113918;28;20106;-74
2023/10/10 00:58:35;;;;;;;1999.90;999.90;;;15.70;99.90;;;;;;5114977;28;20044;-68
2023/10/10 01:01:07;;;;;;;1999.90;999.90;;;15.70;99.90;;;;;;5109777;28;20038;-67
2023/10/10 01:03:34;;;;;;;1999.90;999.90;;;15.70;99.90;;;;;;5108892;28;20027;-67
2023/10/10 01:06:05;;;;;;;1999.90;999.90;;;15.70;99.90;;;;;;5110103;28;20327;-67
2023/10/10 01:08:53;;;;;;;1999.90;999.90;;;15.80;99.90;;;;;;5095762;28;20054;-67
2023/10/10 01:11:19;;;;;;;1999.90;999.90;;;15.80;99.90;;;;;;5112791;28;20032;-67
2023/10/10 01:13:45;;;;;;;1999.90;999.90;;;15.80;99.90;;;;;;5112429;28;20019;-68
2023/10/10 01:16:12;;;;;;;1999.90;999.90;;;15.90;99.90;;;;;;5113401;28;20043;-67
2023/10/10 01:18:39;;;;;;;1999.90;999.90;;;15.90;99.90;;;;;;5108853;28;20284;-68
2023/10/10 01:21:06;;;;;;;1999.90;999.90;;;15.90;99.90;;;;;;5113830;28;20024;-67
2023/10/10 01:23:33;;;;;;;1999.90;999.90;;;16.00;99.90;;;;;;5095750;28;20433;-67
2023/10/10 01:26:06;;;;;;;1999.90;999.90;;;15.90;99.90;;;;;;5115255;28;20032;-67
2023/10/10 01:28:35;;;;;;;1999.90;999.90;;;16.00;99.90;;;;;;5096640;28;20028;-67
2023/10/10 01:31:04;;;;;;;1999.90;999.90;;;16.00;99.90;;;;;;5107893;28;20426;-67
2023/10/10 01:36:03;;;;;;;1999.90;999.90;;;15.90;99.90;;;;;;5114002;28;20027;-68
2023/10/10 01:38:55;;;;;;;1999.90;999.90;;;15.90;99.90;;;;;;5115006;28;20578;-68
2023/10/10 01:41:23;;;;;;;1999.90;999.90;;;15.90;99.90;;;;;;5101330;28;20027;-67
2023/10/10 01:43:53;;;;;;;1999.90;999.90;;;16.00;99.90;;;;;;5110058;28;20028;-67
2023/10/10 01:46:29;;;;;;;1999.90;999.90;;;15.90;99.90;;;;;;5089744;28;20032;-67
2023/10/10 01:48:55;;;;;;;1999.90;999.90;;;15.90;99.90;;;;;;5109821;28;20300;-67
2023/10/10 01:51:24;;;;;;;;;;;15.90;99.90;;;;;;5113883;28;20303;-67
2023/10/10 01:53:52;;;;;;;1999.90;999.90;;;15.90;99.90;;;;;;5113178;28;19958;-67
2023/10/10 01:56:18;;;;;;;1999.90;999.90;;;15.90;99.90;;;;;;5107333;28;20028;-68
2023/10/10 01:58:44;;;;;;;1999.90;999.90;;;15.80;99.90;;;;;;5108922;28;20104;-67
2023/10/10 02:01:13;;;;;;;1999.90;999.90;;;15.80;99.90;;;;;;5112337;28;20376;-75
2023/10/10 02:03:40;;;;;;;1999.90;999.90;;;15.70;99.90;;;;;;5105657;28;20035;-68
2023/10/10 02:06:13;;;;;;;1999.90;999.90;;;15.70;99.90;;;;;;5107349;28;20097;-76
2023/10/10 02:08:44;;;;;;;1999.90;999.90;;;15.70;99.90;;;;;;5105754;28;20039;-67
2023/10/10 02:11:12;;;;;;;1999.90;999.90;;;15.70;99.90;;;;;;5107048;28;20035;-67
2023/10/10 02:13:39;;;;;;;1999.90;999.90;;;15.70;99.90;;;;;;5107368;28;20032;-67
2023/10/10 02:16:10;;;;;;;;;;;15.80;99.90;;;;;;5107429;28;20023;-67
2023/10/10 02:18:44;;;;;;;1999.90;999.90;;;15.80;99.90;;;;;;5106922;28;19921;-68
2023/10/10 02:21:16;;;;;;;1999.90;999.90;;;15.80;99.90;;;;;;5108415;28;20024;-74
2023/10/10 02:23:46;;;;;;;1999.90;999.90;;;15.70;99.90;;;;;;5104346;28;20031;-67
2023/10/10 02:26:35;;;;;;;1999.90;999.90;;;15.70;99.90;;;;;;5107156;28;20023;-67
2023/10/10 02:29:18;;;;;;;1999.90;999.90;;;15.60;99.90;;;;;;5088315;28;20030;-67
2023/10/10 02:31:51;;;;;;;1999.90;999.90;;;15.60;99.90;;;;;;5106182;28;20023;-67
2023/10/10 02:34:19;;;;;;;1999.90;999.90;;;15.60;99.90;;;;;;5107381;28;20012;-67
2023/10/10 02:36:58;;;;;;;1999.90;999.90;;;15.60;99.90;;;;;;5106832;28;20110;-67
2023/10/10 02:39:29;;;;;;;1999.90;999.90;;;15.60;99.90;;;;;;5088997;28;20081;-67
2023/10/10 02:42:00;;;;;;;1999.90;999.90;;;15.60;99.90;;;;;;5099836;28;20024;-67
2023/10/10 02:44:37;;;;;;;1999.90;999.90;;;15.50;99.90;;;;;;5105633;28;20116;-67
2023/10/10 02:47:04;;;;;;;1999.90;999.90;;;15.50;99.90;;;;;;5087157;28;20024;-67
2023/10/10 02:49:30;;;;;;;1999.90;999.90;;;15.40;99.90;;;;;;5109525;28;20379;-67
2023/10/10 02:51:57;;;;;;;1999.90;999.90;;;15.40;99.90;;;;;;5109558;28;20019;-68
2023/10/10 02:56:58;;;;;;;1999.90;999.90;;;15.30;99.90;;;;;;5114742;28;20307;-67
2023/10/10 03:00:15;;;;;;;1999.90;999.90;;;15.30;99.90;;;;;;5116702;28;20019;-68
2023/10/10 03:02:40;;;;;;;1999.90;999.90;;;15.30;99.90;;;;;;5111247;28;20315;-67
2023/10/10 03:05:06;;;;;;;1999.90;999.90;;;15.30;99.90;;;;;;5108189;28;20030;-67
2023/10/10 03:07:35;;;;;;;1999.90;999.90;;;15.30;99.90;;;;;;5114184;28;20323;-67
2023/10/10 03:10:22;;;;;;;1999.90;999.90;;;15.30;99.90;;;;;;5104982;28;20114;-67
2023/10/10 03:13:04;;;;;;;1999.90;999.90;;;15.20;99.90;;;;;;5117200;28;20050;-67
2023/10/10 03:15:32;;;;;;;1999.90;999.90;;;15.20;99.90;;;;;;5115208;28;20192;-67
2023/10/10 03:20:51;;;;;;;1999.90;999.90;;;15.20;99.90;;;;;;5110520;28;20016;-67
2023/10/10 03:26:06;;;;;;;1999.90;999.90;;;15.20;99.90;;;;;;5114630;28;20368;-67
2023/10/10 03:28:41;;;;;;;1999.90;999.90;;;15.20;99.90;;;;;;5116435;28;20032;-67
2023/10/10 03:31:42;;;;;;;1999.90;999.90;;;15.20;99.90;;;;;;5108307;28;20104;-67
2023/10/10 03:34:19;;;;;;;1999.90;999.90;;;15.20;99.90;;;;;;5108440;28;20044;-67
2023/10/10 03:36:46;;;;;;;;;;;15.20;99.90;;;;;;5115488;28;20065;-68
2023/10/10 03:39:26;;;;;;;1999.90;999.90;;;15.30;99.90;;;;;;5114152;28;19908;-67
2023/10/10 05:23:34;;;;;;;1999.90;999.90;;;15.00;99.90;;;;;;5105433;28;20026;-67
2023/10/10 05:26:02;;;;;;;1999.90;999.90;;;14.90;99.90;;;;;;5088101;28;20023;-68
2023/10/10 05:28:32;;;;;;;1999.90;999.90;;;14.90;99.90;;;;;;5105227;28;20034;-67
2023/10/10 05:30:59;;;;;;;1999.90;999.90;;;14.90;99.90;;;;;;5106431;28;20031;-68
2023/10/10 05:33:26;;;;;;;1999.90;999.90;;;14.90;99.90;;;;;;5106232;28;20030;-67
2023/10/10 05:35:57;;;;;;;;;;;14.90;99.90;;;;;;5107302;28;20016;-68
2023/10/10 05:38:25;;;;;;;1999.90;999.90;;;14.80;99.90;;;;;;5091511;28;19912;-68
2023/10/10 05:40:51;;;;;;;1999.90;999.90;;;14.80;99.90;;;;;;5105565;28;20015;-68
2023/10/10 05:43:17;;;;;;;1999.90;999.90;;;14.80;99.90;;;;;;5115076;28;20030;-67
2023/10/10 05:45:43;;;;;;;1999.90;999.90;;;14.80;99.90;;;;;;5113589;28;20028;-67
2023/10/10 05:48:10;;;;;;;1999.90;999.90;;;14.70;99.90;;;;;;5112262;28;20024;-67
2023/10/10 05:50:37;;;;;;;1999.90;999.90;;;14.80;99.90;;;;;;5113135;28;20075;-68
2023/10/10 05:53:06;;;;;;;1999.90;999.90;;;14.70;99.90;;;;;;5107233;28;20051;-67
2023/10/10 05:55:35;;;;;;;1999.90;999.90;;;14.70;99.90;;;;;;5105497;28;20030;-68
2023/10/10 05:58:05;;;;;;;1999.90;999.90;;;14.70;99.90;;;;;;5111377;28;20055;-68
2023/10/10 06:00:36;;;;;;;1999.90;999.90;;;14.70;99.90;;;;;;5113522;28;20016;-68
2023/10/10 06:03:08;;;;;;;1999.90;999.90;;;14.70;99.90;;;;;;5111446;28;20023;-68
2023/10/10 06:05:44;;;;;;;1999.90;999.90;;;14.60;99.90;;;;;;5113032;28;20028;-68
2023/10/10 06:08:10;;;;;;;1999.90;999.90;;;14.70;99.90;;;;;;5113114;28;20083;-74
2023/10/10 06:10:36;;;;;;;1999.90;999.90;;;14.60;99.90;;;;;;5112887;28;20093;-67
2023/10/10 06:13:06;;;;;;;1999.90;999.90;;;14.60;99.90;;;;;;5110645;28;20097;-68
2023/10/10 06:15:33;;;;;;;1999.90;999.90;;;14.70;99.90;;;;;;5108852;28;20058;-67
2023/10/10 06:18:08;;;;;;;;;;;14.70;99.90;;;;;;5107260;28;20032;-68
2023/10/10 06:20:40;;;;;;;1999.90;999.90;;;14.60;99.90;;;;;;5110441;28;19915;-68
2023/10/10 06:23:11;;;;;;;1999.90;999.90;;;14.70;99.90;;;;;;5101755;28;20016;-74
2023/10/10 06:25:37;;;;;;;1999.90;999.90;;;14.70;99.90;;;;;;5105132;28;20360;-68
2023/10/10 06:28:06;;;;;;;1999.90;999.90;;;14.70;99.90;;;;;;5109665;28;20106;-68
2023/10/10 06:30:37;;;;;;;1999.90;999.90;;;14.70;99.90;;;;;;5103457;28;20035;-74
2023/10/10 06:33:14;;;;;;;1999.90;999.90;;;14.80;99.90;;;;;;5092969;28;20406;-68
2023/10/10 06:35:40;;;;;;;1999.90;999.90;;;14.80;99.90;;;;;;5111288;28;20024;-68
2023/10/10 06:38:10;;;;;;;1999.90;999.90;;;14.80;99.90;;;;;;5113652;28;20460;-76
2023/10/10 06:41:10;;;;;;;1999.90;999.90;;;14.90;99.90;;;;;;5113558;28;20065;-68
2023/10/10 06:43:25;;;;;;;1999.90;999.90;;;14.90;99.90;;;;;;5105596;28;20450;-68
2023/10/10 06:45:56;;;;;;;1999.90;999.90;;;15.00;99.90;;;;;;5111448;27;20024;-68
2023/10/10 06:48:22;;;;;;;1999.90;999.90;;;15.00;99.90;;;;;;5110735;27;20024;-68
2023/10/10 06:50:49;;;;;;;1999.90;999.90;;;15.00;99.90;;;;;;5094983;28;20040;-68
2023/10/10 06:53:34;;;;;;;1999.90;999.90;;;15.00;99.90;;;;;;5111836;27;20023;-68
2023/10/10 06:56:15;;;;;;;1999.90;999.90;;;15.10;99.90;;;;;;5112266;27;20047;-68
2023/10/10 06:58:44;;;;;;;1999.90;999.90;;;15.10;99.90;;;;;;5114779;28;20067;-68
2023/10/10 07:01:19;;;;;;;1999.90;999.90;;;15.10;99.90;;;;;;5098949;28;20032;-68
2023/10/10 07:03:54;;;;;;;1999.90;999.90;;;15.10;99.90;;;;;;5111973;27;20410;-68
2023/10/10 07:06:21;;;;;;;1999.90;999.90;;;15.20;99.90;;;;;;5111855;27;20027;-68
2023/10/10 07:09:03;;;;;;;1999.90;999.90;;;15.20;99.90;;;;;;5114035;27;20153;-68
2023/10/10 07:11:32;;;;;;;1999.90;999.90;;;15.30;99.90;;;;;;5106987;27;20034;-68
2023/10/10 07:13:59;;;;;;;1999.90;999.90;;;15.30;99.90;;;;;;5115841;27;20035;-68
2023/10/10 07:16:24;;;;;;;1999.90;999.90;;;15.30;99.90;;;;;;5113048;27;20028;-68
2023/10/10 07:18:56;;;;;;;1999.90;999.90;;;15.30;99.90;;;;;;5112092;27;20114;-68
2023/10/10 07:21:36;;;;;;;1999.90;999.90;;;15.30;99.90;;;;;;5115682;27;20446;-68
2023/10/10 07:24:15;;;;;;;1999.90;999.90;;;15.40;99.90;;;;;;5111359;27;20322;-68
2023/10/10 07:26:41;;;;;;;1999.90;999.90;;;15.40;99.90;;;;;;5112199;27;20023;-68
2023/10/10 07:32:04;;;;;;;1999.90;999.90;;;15.50;99.90;;;;;;5112759;27;19920;-68
2023/10/10 07:34:41;;;;;;;1999.90;999.90;;;15.60;99.90;;;;;;5116464;27;20119;-74
2023/10/10 07:37:08;;;;;;;1999.90;999.90;;;15.60;99.90;;;;;;5117731;27;20023;-68
2023/10/10 07:39:55;;;;;;;1999.90;999.90;;;15.70;99.90;;;;;;5117860;27;20114;-68
2023/10/10 07:42:27;;;;;;;;;;;15.80;99.90;;;;;;5119400;27;20587;-68
2023/10/10 07:44:57;;;;;;;1999.90;999.90;;;15.90;99.90;;;;;;5095420;28;19918;-68
2023/10/10 07:47:27;;;;;;;1999.90;999.90;;;16.00;99.90;;;;;;5097535;27;20034;-69
2023/10/10 07:49:59;;;;;;;1999.90;999.90;;;16.10;99.90;;;;;;5110404;28;20056;-68
2023/10/10 07:52:25;;;;;;;1999.90;999.90;;;16.20;99.90;;;;;;5117417;27;20024;-68
2023/10/10 07:54:52;;;;;;;1999.90;999.90;;;16.30;99.90;;;;;;5110895;27;20100;-67
2023/10/10 07:57:22;;;;;;;;;;;16.40;99.90;;;;;;5113608;27;20023;-68
2023/10/10 07:59:48;;;;;;;1999.90;999.90;;;16.50;99.90;;;;;;5108108;27;19908;-68
2023/10/10 08:04:57;;;;;;;1999.90;999.90;;;16.60;99.90;;;;;;5118555;27;20169;-68
2023/10/10 08:07:24;;;;;;;1999.90;999.90;;;16.70;99.90;;;;;;5119739;27;20031;-68
2023/10/10 08:10:12;;;;;;;1999.90;999.90;;;16.80;99.90;;;;;;5118770;27;20020;-82
2023/10/10 08:12:37;;;;;;;1999.90;999.90;;;16.90;99.90;;;;;;5109188;27;20031;-68
2023/10/10 08:15:19;;;;;;;1999.90;999.90;;;17.10;99.90;;;;;;5100287;28;20024;-68
2023/10/10 08:17:52;;;;;;;1999.90;999.90;;;17.20;99.90;;;;;;5113767;27;20110;-68
2023/10/10 08:20:39;;;;;;;1999.90;999.90;;;17.50;99.90;;;;;;5107068;27;20075;-68
2023/10/10 08:23:05;;;;;;;1999.90;999.90;;;17.80;99.90;;;;;;5110464;27;20019;-68
2023/10/10 08:25:32;;;;;;;1999.90;999.90;;;18.00;99.90;;;;;;5107177;27;20306;-70
2023/10/10 08:27:59;;;;;;;1999.90;999.90;;;18.00;99.90;;;;;;5099709;27;20027;-75
2023/10/10 08:30:25;;;;;;;1999.90;999.90;;;18.00;99.90;;;;;;5109202;27;20020;-68
2023/10/10 08:33:01;;;;;;;1999.90;999.90;;;18.00;99.90;;;;;;5112488;27;20153;-68
2023/10/10 08:35:29;;;;;;;1999.90;999.90;;;18.00;99.90;;;;;;5111072;27;20030;-68
2023/10/10 08:37:56;;;;;;;1999.90;999.90;;;18.00;99.90;;;;;;5110075;27;20023;-68
2023/10/10 08:40:22;;;;;;;1999.90;999.90;;;17.90;99.90;;;;;;5113530;27;20028;-70
2023/10/10 08:42:50;;;;;;;1999.90;999.90;;;17.90;99.90;;;;;;5107046;27;20324;-68
2023/10/10 08:45:23;;;;;;;1999.90;999.90;;;17.90;99.90;;;;;;5112017;27;20027;-68
2023/10/10 08:48:01;;;;;;;1999.90;999.90;;;18.00;99.90;;;;;;5106202;28;20027;-75
2023/10/10 08:50:28;;;;;;;1999.90;999.90;;;18.30;99.90;;;;;;5106059;27;20068;-68
2023/10/10 08:52:54;;;;;;;1999.90;999.90;;;18.40;99.90;;;;;;5114633;27;20370;-68
2023/10/10 08:55:28;;;;;;;1999.90;999.90;;;18.60;99.90;;;;;;5113031;27;20023;-74
2023/10/10 08:57:57;;;;;;;1999.90;999.90;;;18.70;99.90;;;;;;5111267;27;20467;-68
2023/10/10 09:00:26;;;;;;;1999.90;999.90;;;18.90;99.90;;;;;;5110322;28;20108;-68
2023/10/10 09:02:54;;;;;;;1999.90;999.90;;;19.00;99.90;;;;;;5110706;28;20308;-68
2023/10/10 09:05:19;;;;;;;1999.90;999.90;;;19.10;99.90;;;;;;5109267;28;20032;-68
2023/10/10 09:07:46;;;;;;;1999.90;999.90;;;19.10;99.90;;;;;;5110518;27;20032;-68
2023/10/10 09:10:15;;;;;;;1999.90;999.90;;;19.10;99.90;;;;;;5109174;27;20031;-68
2023/10/10 09:12:54;;;;;;;1999.90;999.90;;;19.10;99.90;;;;;;5113269;27;20069;-68
2023/10/10 09:15:20;;;;;;;1999.90;999.90;;;19.20;99.90;;;;;;5104396;28;20104;-68
2023/10/10 09:17:47;;;;;;;1999.90;999.90;;;19.40;99.90;;;;;;5103616;28;20410;-69
2023/10/10 09:20:23;;;;;;;1999.90;999.90;;;19.60;99.90;;;;;;5107563;28;20024;-68
2023/10/10 09:22:55;;;;;;;1999.90;999.90;;;19.80;99.90;;;;;;5103794;28;20128;-68
2023/10/10 09:25:26;;;;;;;1999.90;999.90;;;19.90;99.90;;;;;;5090934;28;20123;-68
2023/10/10 09:28:05;;;;;;;1999.90;999.90;;;19.80;99.90;;;;;;5109849;28;20032;-68
2023/10/10 09:30:40;;;;;;;1999.90;999.90;;;19.60;99.90;;;;;;5101726;28;20075;-69
2023/10/10 09:35:53;;;;;;;1999.90;999.90;;;19.70;99.90;;;;;;5100904;28;20016;-67
2023/10/10 09:38:22;;;;;;;1999.90;999.90;;;19.80;99.90;;;;;;5111635;28;20479;-68
2023/10/10 09:40:58;;;;;;;1999.90;999.90;;;19.90;99.90;;;;;;5111015;28;20039;-68
2023/10/10 09:43:35;;;;;;;1999.90;999.90;;;19.90;99.90;;;;;;5110305;28;20068;-69
2023/10/10 09:49:17;;;;;;;1999.90;999.90;;;20.00;99.90;;;;;;5030634;28;20833;-68
2023/10/10 09:54:25;;;;;;;1999.90;999.90;;;20.30;99.90;;;;;;5036496;28;20467;-68
2023/10/10 09:56:53;;;;;;;1999.90;999.90;;;20.40;99.90;;;;;;5032992;28;20030;-68
2023/10/10 09:59:28;;;;;;;1999.90;999.90;;;20.50;99.90;;;;;;5032081;28;20029;-68
2023/10/10 10:02:00;;;;;;;1999.90;999.90;;;20.50;99.90;;;;;;5031729;28;20084;-68
2023/10/10 10:04:37;;;;;;;1999.90;999.90;;;20.50;99.90;;;;;;5034282;28;20061;-68
2023/10/10 10:07:28;;;;;;;1999.90;999.90;;;20.60;99.90;;;;;;5031986;28;20049;-68
2023/10/10 10:10:22;;;;;;;1999.90;999.90;;;20.60;99.90;;;;;;5034425;28;20144;-67
2023/10/10 10:13:13;;;;;;;1999.90;999.90;;;20.60;99.90;;;;;;5031979;28;20041;-69
2023/10/10 10:16:08;;;;;;;1999.90;999.90;;;20.50;99.90;;;;;;5035670;28;20034;-68
2023/10/10 10:18:47;;;;;;;1999.90;999.90;;;20.50;99.90;;;;;;5031484;28;20044;-79
2023/10/10 10:21:32;;;;;;;1999.90;999.90;;;20.40;99.90;;;;;;5031308;28;20034;-68
2023/10/10 10:24:16;;;;;;;1999.90;999.90;;;20.40;99.90;;;;;;5035152;28;20367;-80
2023/10/10 10:26:43;;;;;;;1999.90;999.90;;;20.40;99.90;;;;;;5101200;28;20012;-69
2023/10/10 10:29:15;;;;;;;1999.90;999.90;;;20.40;99.90;;;;;;5099507;28;20423;-77
2023/10/10 10:31:49;;;;;;;1999.90;999.90;;;20.30;99.90;;;;;;5103230;28;20236;-66
2023/10/10 10:34:31;;;;;;;1999.90;999.90;;;20.40;99.90;;;;;;5102873;28;20478;-66
2023/10/10 10:37:06;;;;;;;1999.90;999.90;;;20.40;99.90;;;;;;5104181;28;20085;-67
2023/10/10 10:39:37;;;;;;;1999.90;999.90;;;20.40;99.90;;;;;;5093045;28;20020;-67
2023/10/10 10:42:15;;;;;;;1999.90;999.90;;;20.50;99.90;;;;;;5103109;28;20020;-67
2023/10/10 10:47:39;;;;;;;1999.90;999.90;;;20.60;99.90;;;;;;5106059;28;20453;-67
2023/10/10 10:50:18;;;;;;;1999.90;999.90;;;20.70;99.90;;;;;;5110371;28;20051;-67
2023/10/10 10:52:57;;;;;;;1999.90;999.90;;;20.70;99.90;;;;;;5111588;28;20028;-67
2023/10/10 10:55:28;;;;;;;1999.90;999.90;;;20.70;99.90;;;;;;5108335;28;20326;-67
2023/10/10 11:03:44;;;;;;;1999.90;999.90;;;20.90;99.90;;;;;;5104051;28;20026;-67
2023/10/10 11:06:14;;;;;;;1999.90;999.90;;;20.90;99.90;;;;;;5102172;28;20043;-67
2023/10/10 11:13:51;;;;;;;1999.90;999.90;;;21.30;99.90;;;;;;5105829;28;20043;-66
2023/10/10 11:16:18;;;;;;;1999.90;999.90;;;21.40;99.90;;;;;;5102278;28;20387;-67
2023/10/10 11:18:44;;;;;;;1999.90;999.90;;;21.60;99.90;;;;;;5107980;28;20030;-67
2023/10/10 11:21:11;;;;;;;1999.90;999.90;;;21.70;99.90;;;;;;5111335;28;20096;-67
2023/10/10 11:23:41;;;;;;;1999.90;999.90;;;21.80;99.90;;;;;;5104944;28;20058;-67
2023/10/10 11:26:13;;;;;;;1999.90;999.90;;;21.90;99.90;;;;;;5115523;28;20035;-67
2023/10/10 11:28:50;;;;;;;1999.90;999.90;;;22.10;99.90;;;;;;5089156;28;20027;-68
2023/10/10 11:31:29;;;;;;;1999.90;999.90;;;21.90;99.90;;;;;;5116102;28;20415;-73
2023/10/10 11:33:56;;;;;;;1999.90;999.90;;;21.70;99.90;;;;;;5108869;28;20028;-67
2023/10/10 11:36:37;;;;;;;1999.90;999.90;;;21.60;99.90;;;;;;5115304;28;20038;-67
2023/10/10 11:39:17;;;;;;;1999.90;999.90;;;21.50;99.90;;;;;;5092150;28;20031;-67
2023/10/10 11:41:45;;;;;;;1999.90;999.90;;;21.40;99.90;;;;;;5103799;28;20039;-66
2023/10/10 11:44:17;;;;;;;1999.90;999.90;;;21.40;99.90;;;;;;5106676;28;20360;-76
2023/10/10 11:46:45;;;;;;;1999.90;999.90;;;21.40;99.90;;;;;;5103314;28;20015;-67
2023/10/10 11:49:17;;;;;;;1999.90;999.90;;;21.50;99.90;;;;;;5109264;28;20110;-67
2023/10/10 11:51:43;;;;;;;1999.90;999.90;;;21.50;99.90;;;;;;5094666;28;20038;-68
2023/10/10 11:54:09;;;;;;;1999.90;999.90;;;21.60;99.90;;;;;;5107893;28;20115;-67
2023/10/10 11:56:35;;;;;;;1999.90;999.90;;;21.70;99.90;;;;;;5112051;28;20102;-67
2023/10/10 11:59:13;;;;;;;1999.90;999.90;;;21.80;99.90;;;;;;5110471;28;20028;-66
2023/10/10 12:01:51;;;;;;;1999.90;999.90;;;21.90;99.90;;;;;;5107451;28;20036;-67
2023/10/10 12:04:30;;;;;;;1999.90;999.90;;;22.10;99.90;;;;;;5104108;28;20420;-67
2023/10/10 12:06:58;;;;;;;1999.90;999.90;;;22.20;99.90;;;;;;5105472;28;20483;-67
2023/10/10 12:09:26;;;;;;;1999.90;999.90;;;22.20;99.90;;;;;;5112600;28;20027;-70
2023/10/10 12:11:59;;;;;;;1999.90;999.90;;;22.40;99.90;;;;;;5112392;28;20049;-67
2023/10/10 12:14:32;;;;;;;1999.90;999.90;;;22.50;99.90;;;;;;5106979;28;20065;-66
2023/10/10 12:16:59;;;;;;;1999.90;999.90;;;22.50;99.90;;;;;;5110119;27;20373;-67
2023/10/10 12:19:36;;;;;;;1999.90;999.90;;;22.60;99.90;;;;;;5101854;28;20028;-75
2023/10/10 12:22:08;;;;;;;1999.90;999.90;;;22.70;99.90;;;;;;5108823;28;20024;-69
2023/10/10 12:24:35;;;;;;;1999.90;999.90;;;22.70;99.90;;;;;;5101616;28;20295;-75
2023/10/10 12:27:01;;;;;;;1999.90;999.90;;;22.70;99.90;;;;;;5107311;28;20465;-68
2023/10/10 12:29:30;;;;;;;1999.90;999.90;;;22.50;99.90;;;;;;5110556;28;20026;-69
2023/10/10 12:31:56;;;;;;;1999.90;999.90;;;22.40;99.90;;;;;;5099915;28;20111;-77
2023/10/10 12:34:25;;;;;;;1999.90;999.90;;;22.30;99.90;;;;;;5107127;28;20032;-75
2023/10/10 12:37:10;;;;;;;1999.90;999.90;;;22.30;99.90;;;;;;5106118;28;20419;-75
2023/10/10 12:39:37;;;;;;;1999.90;999.90;;;22.30;99.90;;;;;;5114351;28;20028;-75
2023/10/10 12:42:03;;;;;;;1999.90;999.90;;;22.20;99.90;;;;;;5112921;28;20043;-67
2023/10/10 12:44:29;;;;;;;1999.90;999.90;;;22.20;99.90;;;;;;5106698;28;20105;-77
2023/10/10 12:46:58;;;;;;;1999.90;999.90;;;22.20;99.90;;;;;;5106276;27;20031;-67
2023/10/10 12:49:36;;;;;;;1999.90;999.90;;;22.20;99.90;;;;;;5115034;28;20047;-75
2023/10/10 12:52:11;;;;;;;1999.90;999.90;;;22.40;99.90;;;;;;5115075;28;20322;-67
2023/10/10 12:54:37;;;;;;;1999.90;999.90;;;22.50;99.90;;;;;;5115806;28;20053;-67
2023/10/10 12:57:06;;;;;;;1999.90;999.90;;;22.50;99.90;;;;;;5114473;28;20028;-70
2023/10/10 12:59:34;;;;;;;1999.90;999.90;;;22.40;99.90;;;;;;5109351;27;20027;-67
2023/10/10 13:02:03;;;;;;;1999.90;999.90;;;22.40;99.90;;;;;;5110178;27;20015;-67
2023/10/10 13:04:31;;;;;;;1999.90;999.90;;;22.30;99.90;;;;;;5089765;27;20016;-67
2023/10/10 13:07:04;;;;;;;1999.90;999.90;;;22.20;99.90;;;;;;5116887;27;20486;-67
2023/10/10 13:09:31;;;;;;;1999.90;999.90;;;22.20;99.90;;;;;;5094318;28;20106;-66
2023/10/10 13:11:57;;;;;;;1999.90;999.90;;;22.20;99.90;;;;;;5112978;27;20023;-67
2023/10/10 13:14:32;;;;;;;1999.90;999.90;;;22.30;99.90;;;;;;5103538;28;20068;-67
2023/10/10 13:17:29;;;;;;;1999.90;999.90;;;22.60;99.90;;;;;;5101755;28;20040;-77
2023/10/10 13:19:58;;;;;;;1999.90;999.90;;;22.80;99.90;;;;;;5095115;28;20385;-66
2023/10/10 13:22:24;;;;;;;1999.90;999.90;;;22.90;99.90;;;;;;5092384;27;20027;-67
2023/10/10 13:24:50;;;;;;;1999.90;999.90;;;23.00;99.90;;;;;;5112062;27;20042;-67
2023/10/10 13:27:17;;;;;;;1999.90;999.90;;;23.00;99.90;;;;;;5087358;28;20024;-66
2023/10/10 13:29:43;;;;;;;1999.90;999.90;;;22.90;99.90;;;;;;5115016;27;20027;-67
2023/10/10 13:32:09;;;;;;;1999.90;999.90;;;22.80;99.90;;;;;;5116297;27;20027;-79
2023/10/10 13:34:37;;;;;;;1999.90;999.90;;;22.60;99.90;;;;;;5114698;27;20251;-67
2023/10/10 13:37:07;;;;;;;1999.90;999.90;;;22.40;99.90;;;;;;5102436;28;20406;-77
2023/10/10 13:39:43;;;;;;;1999.90;999.90;;;22.20;99.90;;;;;;5115428;27;20020;-67
2023/10/10 13:42:09;;;;;;;;;;;22.10;99.90;;;;;;5114830;27;20417;-67
2023/10/10 13:44:35;;;;;;;;;;;21.90;99.90;;;;;;5114595;27;19904;-67
2023/10/10 13:47:01;;;;;;;1999.90;999.90;;;21.80;99.90;;;;;;5105526;27;19964;-67
2023/10/10 13:49:27;;;;;;;1999.90;999.90;;;21.70;99.90;;;;;;5107646;28;20104;-67
2023/10/10 13:51:53;;;;;;;1999.90;999.90;;;21.70;99.90;;;;;;5106235;27;20292;-66
2023/10/10 13:54:19;;;;;;;1999.90;999.90;;;21.70;99.90;;;;;;5106669;27;20778;-66
2023/10/10 13:56:45;;;;;;;1999.90;999.90;;;21.60;99.90;;;;;;5105415;27;20035;-67
2023/10/10 13:59:11;;;;;;;1999.90;999.90;;;21.60;99.90;;;;;;5109589;27;20088;-66
2023/10/10 14:01:39;;;;;;;1999.90;999.90;;;21.60;99.90;;;;;;5096220;28;20594;-66
2023/10/10 14:04:27;;;;;;;1999.90;999.90;;;21.50;99.90;;;;;;5116809;27;20032;-66
2023/10/10 14:06:54;;;;;;;1999.90;999.90;;;21.40;99.90;;;;;;5112234;27;20130;-66
2023/10/10 14:09:24;;;;;;;1999.90;999.90;;;21.30;99.90;;;;;;5112303;27;20019;-66
2023/10/10 14:11:51;;;;;;;1999.90;999.90;;;21.30;99.90;;;;;;5110584;27;20441;-66
2023/10/10 14:14:18;;;;;;;1999.90;999.90;;;21.30;99.90;;;;;;5114581;27;20034;-76
2023/10/10 14:16:44;;;;;;;1999.90;999.90;;;21.20;99.90;;;;;;5121141;27;20094;-66
2023/10/10 14:19:10;;;;;;;1999.90;999.90;;;21.20;99.90;;;;;;5111903;27;20154;-75
2023/10/10 14:21:38;;;;;;;1999.90;999.90;;;21.20;99.90;;;;;;5095356;28;20023;-66
2023/10/10 14:24:08;;;;;;;1999.90;999.90;;;21.20;99.90;;;;;;5102686;28;20062;-67
2023/10/10 14:26:35;;;;;;;1999.90;999.90;;;21.20;99.90;;;;;;5108414;28;20024;-66
2023/10/10 14:29:05;;;;;;;1999.90;999.90;;;21.20;99.90;;;;;;5111936;28;20038;-66
2023/10/10 14:31:31;;;;;;;1999.90;999.90;;;21.30;99.90;;;;;;5108364;28;20031;-67
2023/10/10 14:34:00;;;;;;;;;;;21.40;99.90;;;;;;5111177;28;20031;-66
2023/10/10 14:36:39;;;;;;;1999.90;999.90;;;21.40;99.90;;;;;;5104495;28;19908;-67
2023/10/10 14:39:08;;;;;;;1999.90;999.90;;;21.50;99.90;;;;;;5106672;28;20035;-67
2023/10/10 14:41:34;;;;;;;1999.90;999.90;;;21.50;99.90;;;;;;5102244;28;20027;-76
2023/10/10 14:44:00;;;;;;;;;;;21.60;99.90;;;;;;5108362;28;20031;-76